createdAt,value
2023-04-18T00:01:36.350Z,94674.31
2023-04-18T00:04:02.849Z,94670.03
2023-04-18T00:06:29.421Z,94666.59
2023-04-18T00:08:55.753Z,94658.06
2023-04-18T00:11:22.066Z,94655.66
2023-04-18T00:13:48.387Z,94658.94
2023-04-18T00:16:14.797Z,94660.09
2023-04-18T00:18:41.237Z,94662.06
2023-04-18T00:21:07.550Z,94656.44
2023-04-18T00:23:33.870Z,94653.38
2023-04-18T00:26:00.200Z,94658.81
2023-04-18T00:28:26.532Z,94651.75
2023-04-18T00:30:52.897Z,94656.63
2023-04-18T00:33:19.250Z,94650.75
2023-04-18T00:35:45.578Z,94657.25
2023-04-18T00:38:11.893Z,94652.69
2023-04-18T00:40:38.216Z,94662.50
2023-04-18T00:43:04.582Z,94661.06
2023-04-18T00:45:30.920Z,94654.34
2023-04-18T00:47:57.294Z,94651.72
2023-04-18T00:50:23.734Z,94649.09
2023-04-18T00:52:50.046Z,94657.16
2023-04-18T00:55:16.356Z,94650.94
2023-04-18T00:57:42.652Z,94658.28
2023-04-18T01:00:08.973Z,94651.22
2023-04-18T01:02:35.422Z,94650.09
2023-04-18T01:05:01.862Z,94646.50
2023-04-18T01:07:28.164Z,94643.88
2023-04-18T01:09:54.468Z,94645.16
2023-04-18T01:12:20.802Z,94648.78
2023-04-18T01:14:47.132Z,94646.16
2023-04-18T01:17:13.580Z,94645.81
2023-04-18T01:19:39.935Z,94643.53
2023-04-18T01:22:06.269Z,94640.91
2023-04-18T01:24:32.600Z,94648.44
2023-04-18T01:26:58.927Z,94638.06
2023-04-18T01:29:25.262Z,94647.59
2023-04-18T01:31:51.588Z,94644.16
2023-04-18T01:34:17.944Z,94636.78
2023-04-18T01:36:44.302Z,94631.69
2023-04-18T01:39:10.613Z,94635.25
2023-04-18T01:41:36.913Z,94630.00
2023-04-18T01:44:03.223Z,94638.91
2023-04-18T01:46:29.612Z,94635.81
2023-04-18T01:48:55.937Z,94637.91
2023-04-18T01:51:22.239Z,94630.31
2023-04-18T01:53:48.555Z,94635.09
2023-04-18T01:56:14.897Z,94640.66
2023-04-18T01:58:41.199Z,94639.16
2023-04-18T02:01:07.582Z,94640.16
2023-04-18T02:03:34.099Z,94639.38
2023-04-18T02:06:00.535Z,94628.19
2023-04-18T02:08:26.886Z,94630.97
2023-04-18T02:10:53.231Z,94629.53
2023-04-18T02:13:19.528Z,94632.59
2023-04-18T02:15:45.891Z,94627.03
2023-04-18T02:18:12.237Z,94645.72
2023-04-18T02:20:38.549Z,94639.69
2023-04-18T02:23:04.848Z,94642.28
2023-04-18T02:25:31.170Z,94647.59
2023-04-18T02:27:57.488Z,94640.03
2023-04-18T02:30:23.817Z,94650.34
2023-04-18T02:32:50.157Z,94645.94
2023-04-18T02:35:16.508Z,94650.69
2023-04-18T02:37:42.857Z,94643.28
2023-04-18T02:40:09.190Z,94647.56
2023-04-18T02:42:35.491Z,94652.63
2023-04-18T02:45:01.812Z,94652.78
2023-04-18T02:47:28.150Z,94647.84
2023-04-18T02:49:54.457Z,94643.28
2023-04-18T02:52:20.782Z,94648.38
2023-04-18T02:54:47.107Z,94643.97
2023-04-18T02:57:13.414Z,94656.94
2023-04-18T02:59:39.729Z,94647.88
2023-04-18T03:02:06.070Z,94648.84
2023-04-18T03:04:32.450Z,94657.88
2023-04-18T03:06:58.782Z,94655.06
2023-04-18T03:09:25.085Z,94657.16
2023-04-18T03:11:51.394Z,94657.16
2023-04-18T03:14:17.745Z,94657.84
2023-04-18T03:16:44.079Z,94656.53
2023-04-18T03:19:10.411Z,94648.28
2023-04-18T03:21:36.720Z,94649.97
2023-04-18T03:24:03.038Z,94644.78
2023-04-18T03:26:29.357Z,94652.06
2023-04-18T03:28:55.686Z,94651.56
2023-04-18T03:31:22.061Z,94639.41
2023-04-18T03:33:48.444Z,94645.50
2023-04-18T03:36:14.769Z,94647.66
2023-04-18T03:38:41.076Z,94645.47
2023-04-18T03:41:07.394Z,94637.63
2023-04-18T03:43:33.744Z,94641.34
2023-04-18T03:46:00.167Z,94645.47
2023-04-18T03:48:26.521Z,94648.41
2023-04-18T03:50:52.854Z,94639.03
2023-04-18T03:53:19.172Z,94649.88
2023-04-18T03:55:45.483Z,94647.53
2023-04-18T03:58:11.838Z,94647.38
2023-04-18T04:00:38.137Z,94648.19
2023-04-18T04:03:04.556Z,94641.41
2023-04-18T04:05:31.013Z,94646.56
2023-04-18T04:07:57.332Z,94644.19
2023-04-18T04:10:23.626Z,94638.25
2023-04-18T04:12:49.966Z,94639.13
2023-04-18T04:15:16.288Z,94640.41
2023-04-18T04:17:42.688Z,94643.75
2023-04-18T04:20:09.017Z,94645.38
2023-04-18T04:22:35.344Z,94643.88
2023-04-18T04:25:01.661Z,94649.19
2023-04-18T04:27:27.989Z,94641.19
2023-04-18T04:29:54.320Z,94641.16
2023-04-18T04:32:20.645Z,94644.63
2023-04-18T04:34:46.993Z,94645.56
2023-04-18T04:37:13.333Z,94644.91
2023-04-18T04:39:39.647Z,94653.97
2023-04-18T04:42:05.948Z,94647.59
2023-04-18T04:44:32.280Z,94653.19
2023-04-18T04:46:58.651Z,94656.00
2023-04-18T04:49:24.974Z,94665.03
2023-04-18T04:51:51.289Z,94659.66
2023-04-18T04:54:17.595Z,94661.31
2023-04-18T04:56:43.918Z,94660.31
2023-04-18T04:59:10.218Z,94661.94
2023-04-18T05:01:36.628Z,94665.03
2023-04-18T05:04:03.044Z,94670.59
2023-04-18T05:06:29.462Z,94669.78
2023-04-18T05:08:55.800Z,94665.56
2023-04-18T05:11:22.109Z,94662.44
2023-04-18T05:13:48.443Z,94664.91
2023-04-18T05:16:14.829Z,94666.84
2023-04-18T05:18:41.176Z,94661.16
2023-04-18T05:21:07.517Z,94666.22
2023-04-18T05:23:33.820Z,94672.28
2023-04-18T05:26:00.153Z,94668.34
2023-04-18T05:28:26.455Z,94665.25
2023-04-18T05:30:52.846Z,94669.53
2023-04-18T05:33:19.220Z,94667.88
2023-04-18T05:35:45.533Z,94677.22
2023-04-18T05:38:11.880Z,94683.47
2023-04-18T05:40:38.238Z,94665.09
2023-04-18T05:43:04.567Z,94676.28
2023-04-18T05:45:30.887Z,94680.69
2023-04-18T05:47:57.248Z,94675.28
2023-04-18T05:50:23.611Z,94678.56
2023-04-18T05:52:49.942Z,94666.72
2023-04-18T05:55:16.271Z,94671.16
2023-04-18T05:57:42.610Z,94677.22
2023-04-18T06:00:08.936Z,94671.47
2023-04-18T06:02:35.419Z,94672.78
2023-04-18T06:05:02.009Z,94680.81
2023-04-18T06:07:28.439Z,94672.81
2023-04-18T06:09:54.752Z,94673.13
2023-04-18T06:12:21.075Z,94680.69
2023-04-18T06:14:47.409Z,94682.94
2023-04-18T06:17:13.751Z,94683.75
2023-04-18T06:19:40.077Z,94685.91
2023-04-18T06:22:06.405Z,94688.50
2023-04-18T06:24:32.723Z,94681.56
2023-04-18T06:26:59.043Z,94683.25
2023-04-18T06:29:25.381Z,94687.66
2023-04-18T06:31:51.742Z,94685.94
2023-04-18T06:34:18.162Z,94693.69
2023-04-18T06:36:44.514Z,94691.66
2023-04-18T06:39:10.849Z,94687.50
2023-04-18T06:41:37.192Z,94685.38
2023-04-18T06:44:04.611Z,94690.28
2023-04-18T06:46:31.293Z,94684.19
2023-04-18T06:48:57.701Z,94686.78
2023-04-18T06:51:24.020Z,94689.25
2023-04-18T06:53:50.325Z,94701.06
2023-04-18T06:56:16.662Z,94698.41
2023-04-18T06:58:42.967Z,94697.38
2023-04-18T07:01:09.355Z,94703.09
2023-04-18T07:03:35.783Z,94697.28
2023-04-18T07:06:02.150Z,94695.72
2023-04-18T07:08:28.480Z,94690.44
2023-04-18T07:10:54.800Z,94695.53
2023-04-18T07:13:21.171Z,94694.09
2023-04-18T07:15:47.494Z,94704.41
2023-04-18T07:18:20.536Z,94696.78
2023-04-18T07:20:53.029Z,94698.28
2023-04-18T07:23:19.344Z,94698.66
2023-04-18T07:25:45.668Z,94701.13
2023-04-18T07:28:11.983Z,94691.41
2023-04-18T07:30:38.350Z,94700.91
2023-04-18T07:33:04.710Z,94698.00
2023-04-18T07:35:31.080Z,94702.66
2023-04-18T07:37:57.410Z,94690.41
2023-04-18T07:40:23.741Z,94703.47
2023-04-18T07:42:50.058Z,94694.88
2023-04-18T07:45:16.381Z,94697.97
2023-04-18T07:47:42.712Z,94698.53
2023-04-18T07:50:09.045Z,94704.22
2023-04-18T07:52:36.824Z,94701.88
2023-04-18T07:55:04.479Z,94697.53
2023-04-18T07:57:30.797Z,94702.63
2023-04-18T07:59:57.112Z,94696.97
2023-04-18T08:02:23.621Z,94699.53
2023-04-18T08:04:50.194Z,94697.25
2023-04-18T08:07:16.742Z,94698.38
2023-04-18T08:09:43.061Z,94694.00
2023-04-18T08:12:09.379Z,94698.38
2023-04-18T08:14:35.702Z,94702.09
2023-04-18T08:17:02.044Z,94698.97
2023-04-18T08:19:28.374Z,94693.88
2023-04-18T08:21:54.690Z,94695.59
2023-04-18T08:24:21.019Z,94694.69
2023-04-18T08:26:47.327Z,94697.28
2023-04-18T08:29:13.819Z,94693.56
2023-04-18T08:31:40.336Z,94693.38
2023-04-18T08:34:06.716Z,94697.09
2023-04-18T08:36:33.029Z,94696.28
2023-04-18T08:38:59.322Z,94700.50
2023-04-18T08:41:25.622Z,94692.69
2023-04-18T08:43:51.940Z,94679.63
2023-04-18T08:46:18.291Z,94692.25
2023-04-18T08:48:44.607Z,94693.34
2023-04-18T08:51:10.926Z,94687.41
2023-04-18T08:53:37.239Z,94688.38
2023-04-18T08:56:03.616Z,94697.22
2023-04-18T08:58:29.944Z,94697.97
2023-04-18T09:00:56.321Z,94696.75
2023-04-18T09:03:22.782Z,94689.50
2023-04-18T09:05:49.126Z,94693.84
2023-04-18T09:08:15.442Z,94693.84
2023-04-18T09:10:41.746Z,94692.31
2023-04-18T09:13:08.058Z,94690.31
2023-04-18T09:15:34.387Z,94691.97
2023-04-18T09:18:00.792Z,94695.41
2023-04-18T09:20:27.140Z,94697.91
2023-04-18T09:22:53.465Z,94691.94
2023-04-18T09:25:19.774Z,94691.94
2023-04-18T09:27:46.094Z,94696.09
2023-04-18T09:30:12.422Z,94688.59
2023-04-18T09:32:38.767Z,94684.44
2023-04-18T09:35:05.199Z,94682.91
2023-04-18T09:37:31.551Z,94683.72
2023-04-18T09:39:57.877Z,94687.81
2023-04-18T09:42:25.547Z,94693.13
2023-04-18T09:44:54.231Z,94690.50
2023-04-18T09:47:22.156Z,94685.44
2023-04-18T09:49:48.519Z,94689.34
2023-04-18T09:52:14.921Z,94691.41
2023-04-18T09:54:41.261Z,94687.22
2023-04-18T09:57:07.581Z,94689.16
2023-04-18T09:59:33.890Z,94690.41
2023-04-18T10:02:00.320Z,94693.50
2023-04-18T10:04:26.793Z,94690.03
2023-04-18T10:06:53.192Z,94679.69
2023-04-18T10:09:19.499Z,94683.13
2023-04-18T10:11:45.807Z,94691.06
2023-04-18T10:14:12.297Z,94685.41
2023-04-18T10:16:38.892Z,94684.97
2023-04-18T10:19:05.324Z,94684.22
2023-04-18T10:21:31.647Z,94685.88
2023-04-18T10:23:57.984Z,94687.75
2023-04-18T10:26:25.375Z,94688.56
2023-04-18T10:28:51.714Z,94688.81
2023-04-18T10:31:18.079Z,94693.69
2023-04-18T10:33:49.614Z,94691.69
2023-04-18T10:36:23.047Z,94678.44
2023-04-18T10:38:49.392Z,94677.88
2023-04-18T10:41:15.740Z,94684.00
2023-04-18T10:43:42.076Z,94683.97
2023-04-18T10:46:14.388Z,94678.06
2023-04-18T10:48:50.457Z,94682.97
2023-04-18T10:51:16.822Z,94679.13
2023-04-18T10:53:43.216Z,94678.69
2023-04-18T10:56:09.525Z,94678.69
2023-04-18T10:58:35.844Z,94673.78
2023-04-18T11:01:02.352Z,94673.19
2023-04-18T11:03:28.765Z,94665.03
2023-04-18T11:05:55.101Z,94663.22
2023-04-18T11:08:21.857Z,94673.41
2023-04-18T11:10:48.185Z,94671.16
2023-04-18T11:13:14.517Z,94662.59
2023-04-18T11:15:40.837Z,94666.84
2023-04-18T11:18:07.245Z,94668.31
2023-04-18T11:20:33.602Z,94662.59
2023-04-18T11:22:59.914Z,94667.06
2023-04-18T11:25:26.273Z,94662.16
2023-04-18T11:27:52.640Z,94660.50
2023-04-18T11:30:19.030Z,94658.88
2023-04-18T11:32:45.473Z,94664.00
2023-04-18T11:35:11.831Z,94657.25
2023-04-18T11:37:38.153Z,94657.88
2023-04-18T11:40:04.481Z,94655.22
2023-04-18T11:42:30.804Z,94655.88
2023-04-18T11:44:57.128Z,94660.09
2023-04-18T11:47:23.468Z,94660.72
2023-04-18T11:49:49.816Z,94663.16
2023-04-18T11:52:16.135Z,94653.34
2023-04-18T11:54:42.442Z,94656.38
2023-04-18T11:57:08.778Z,94658.00
2023-04-18T11:59:35.122Z,94656.53
2023-04-18T12:02:14.757Z,94651.88
2023-04-18T12:04:43.059Z,94646.72
2023-04-18T12:07:09.524Z,94653.50
2023-04-18T12:09:35.849Z,94651.66
2023-04-18T12:12:02.203Z,94652.09
2023-04-18T12:14:28.731Z,94651.41
2023-04-18T12:16:55.061Z,94650.97
2023-04-18T12:19:21.392Z,94646.06
2023-04-18T12:21:47.732Z,94649.47
2023-04-18T12:24:14.393Z,94644.97
2023-04-18T12:26:40.920Z,94642.13
2023-04-18T12:29:07.234Z,94648.16
2023-04-18T12:31:33.575Z,94643.72
2023-04-18T12:33:59.973Z,94647.72
2023-04-18T12:36:26.296Z,94648.72
2023-04-18T12:38:52.602Z,94642.56
2023-04-18T12:41:18.915Z,94641.50
2023-04-18T12:43:45.230Z,94639.84
2023-04-18T12:46:11.570Z,94643.47
2023-04-18T12:48:37.912Z,94638.13
2023-04-18T12:51:04.221Z,94640.97
2023-04-18T12:53:30.524Z,94641.97
2023-04-18T12:55:56.849Z,94642.16
2023-04-18T12:58:23.183Z,94642.72
2023-04-18T13:00:49.533Z,94638.69
2023-04-18T13:03:16.011Z,94642.50
2023-04-18T13:05:42.503Z,94645.75
2023-04-18T13:08:16.938Z,94647.81
2023-04-18T13:10:44.388Z,94653.84
2023-04-18T13:13:10.807Z,94650.09
2023-04-18T13:15:37.183Z,94656.38
2023-04-18T13:18:03.672Z,94659.84
2023-04-18T13:20:30.005Z,94657.72
2023-04-18T13:22:56.471Z,94653.88
2023-04-18T13:25:22.793Z,94656.34
2023-04-18T13:27:49.111Z,94657.50
2023-04-18T13:30:15.450Z,94653.09
2023-04-18T13:32:42.132Z,94658.47
2023-04-18T13:35:09.779Z,94655.31
2023-04-18T13:37:36.114Z,94645.25
2023-04-18T13:40:02.495Z,94649.69
2023-04-18T13:42:28.826Z,94647.09
2023-04-18T13:44:55.148Z,94646.28
2023-04-18T13:47:21.535Z,94642.22
2023-04-18T13:49:47.885Z,94646.38
2023-04-18T13:52:14.210Z,94646.78
2023-04-18T13:54:40.540Z,94639.19
2023-04-18T13:57:06.865Z,94638.81
2023-04-18T13:59:33.200Z,94636.28
2023-04-18T14:01:59.660Z,94640.63
2023-04-18T14:04:26.228Z,94634.78
2023-04-18T14:06:52.733Z,94635.44
2023-04-18T14:09:19.052Z,94638.34
2023-04-18T14:11:45.389Z,94639.84
2023-04-18T14:14:11.716Z,94633.09
2023-04-18T14:16:38.026Z,94637.03
2023-04-18T14:19:04.376Z,94632.50
2023-04-18T14:21:30.706Z,94643.25
2023-04-18T14:23:57.032Z,94629.03
2023-04-18T14:26:23.356Z,94631.53
2023-04-18T14:28:49.683Z,94633.22
2023-04-18T14:31:16.039Z,94630.00
2023-04-18T14:33:42.396Z,94635.44
2023-04-18T14:36:08.718Z,94632.75
2023-04-18T14:38:35.035Z,94635.25
2023-04-18T14:41:01.353Z,94639.56
2023-04-18T14:43:27.658Z,94645.81
2023-04-18T14:45:53.996Z,94634.72
2023-04-18T14:48:20.379Z,94634.13
2023-04-18T14:50:46.723Z,94640.66
2023-04-18T14:53:13.113Z,94643.91
2023-04-18T14:55:39.490Z,94637.66
2023-04-18T14:58:05.817Z,94640.88
2023-04-18T15:00:32.155Z,94643.56
2023-04-18T15:02:58.625Z,94648.09
2023-04-18T15:05:25.071Z,94644.97
2023-04-18T15:07:51.396Z,94645.97
2023-04-18T15:10:17.721Z,94631.63
2023-04-18T15:12:44.072Z,94638.00
2023-04-18T15:15:10.416Z,94635.34
2023-04-18T15:17:36.764Z,94637.28
2023-04-18T15:20:03.095Z,94637.41
2023-04-18T15:22:29.423Z,94639.97
2023-04-18T15:24:55.745Z,94636.50
2023-04-18T15:27:22.080Z,94631.84
2023-04-18T15:29:48.384Z,94633.47
2023-04-18T15:32:14.786Z,94635.84
2023-04-18T15:34:41.179Z,94636.44
2023-04-18T15:37:07.520Z,94640.50
2023-04-18T15:39:33.828Z,94649.13
2023-04-18T15:42:00.176Z,94647.38
2023-04-18T15:44:26.501Z,94637.19
2023-04-18T15:46:52.806Z,94650.06
2023-04-18T15:49:19.113Z,94650.13
2023-04-18T15:51:45.437Z,94650.75
2023-04-18T15:54:11.847Z,94654.31
2023-04-18T15:56:38.281Z,94653.81
2023-04-18T15:59:04.601Z,94654.88
2023-04-18T16:01:30.967Z,94648.84
2023-04-18T16:03:57.478Z,94644.91
2023-04-18T16:06:23.879Z,94649.44
2023-04-18T16:08:50.182Z,94647.25
2023-04-18T16:11:16.509Z,94643.09
2023-04-18T16:13:42.813Z,94643.66
2023-04-18T16:16:09.193Z,94642.34
2023-04-18T16:18:35.547Z,94648.63
2023-04-18T16:21:01.900Z,94646.31
2023-04-18T16:23:28.237Z,94646.50
2023-04-18T16:25:54.564Z,94644.84
2023-04-18T16:28:20.911Z,94648.69
2023-04-18T16:30:47.245Z,94650.59
2023-04-18T16:33:13.653Z,94651.63
2023-04-18T16:35:40.097Z,94645.03
2023-04-18T16:38:06.426Z,94658.84
2023-04-18T16:40:32.753Z,94651.28
2023-04-18T16:42:59.094Z,94649.16
2023-04-18T16:45:25.441Z,94654.00
2023-04-18T16:47:51.767Z,94645.06
2023-04-18T16:50:18.122Z,94652.16
2023-04-18T16:52:44.449Z,94649.91
2023-04-18T16:55:10.769Z,94648.06
2023-04-18T16:57:37.082Z,94656.16
2023-04-18T17:00:03.402Z,94653.59
2023-04-18T17:02:29.944Z,94660.03
2023-04-18T17:04:56.460Z,94657.13
2023-04-18T17:07:22.899Z,94666.03
2023-04-18T17:09:49.221Z,94661.81
2023-04-18T17:12:15.564Z,94665.06
2023-04-18T17:14:41.898Z,94667.41
2023-04-18T17:17:08.209Z,94666.44
2023-04-18T17:19:34.535Z,94666.78
2023-04-18T17:22:00.851Z,94668.75
2023-04-18T17:24:27.160Z,94674.47
2023-04-18T17:26:53.493Z,94668.75
2023-04-18T17:29:19.847Z,94676.50
2023-04-18T17:31:46.206Z,94677.91
2023-04-18T17:34:12.542Z,94685.91
2023-04-18T17:36:38.873Z,94680.97
2023-04-18T17:39:05.209Z,94681.19
2023-04-18T17:41:31.551Z,94684.44
2023-04-18T17:43:57.869Z,94682.72
2023-04-18T17:46:24.215Z,94691.38
2023-04-18T17:48:50.557Z,94689.59
2023-04-18T17:51:16.890Z,94692.34
2023-04-18T17:53:43.255Z,94698.69
2023-04-18T17:56:09.597Z,94699.41
2023-04-18T17:58:35.920Z,94697.78
2023-04-18T18:01:02.321Z,94695.91
2023-04-18T18:03:28.872Z,94704.34
2023-04-18T18:05:55.348Z,94715.97
2023-04-18T18:08:21.681Z,94710.75
2023-04-18T18:10:48.020Z,94724.88
2023-04-18T18:13:14.326Z,94723.28
2023-04-18T18:15:40.668Z,94721.22
2023-04-18T18:18:06.995Z,94719.38
2023-04-18T18:20:33.360Z,94727.34
2023-04-18T18:22:59.763Z,94723.84
2023-04-18T18:25:26.148Z,94734.31
2023-04-18T18:27:52.453Z,94732.97
2023-04-18T18:30:18.768Z,94738.41
2023-04-18T18:32:45.188Z,94728.84
2023-04-18T18:35:11.506Z,94742.44
2023-04-18T18:37:37.837Z,94742.00
2023-04-18T18:40:04.165Z,94739.59
2023-04-18T18:42:30.488Z,94746.72
2023-04-18T18:44:56.804Z,94754.69
2023-04-18T18:47:23.160Z,94750.63
2023-04-18T18:49:49.498Z,94748.41
2023-04-18T18:52:15.816Z,94761.25
2023-04-18T18:54:42.121Z,94756.75
2023-04-18T18:57:08.449Z,94753.28
2023-04-18T18:59:34.820Z,94770.06
2023-04-18T19:02:01.257Z,94764.31
2023-04-18T19:04:27.819Z,94768.81
2023-04-18T19:06:54.314Z,94771.47
2023-04-18T19:09:20.647Z,94767.16
2023-04-18T19:11:46.987Z,94772.63
2023-04-18T19:14:13.310Z,94779.78
2023-04-18T19:16:39.685Z,94779.72
2023-04-18T19:19:06.084Z,94772.81
2023-04-18T19:21:32.406Z,94780.38
2023-04-18T19:23:58.730Z,94774.47
2023-04-18T19:26:25.087Z,94783.19
2023-04-18T19:28:51.420Z,94785.97
2023-04-18T19:31:17.733Z,94785.97
2023-04-18T19:33:44.063Z,94787.72
2023-04-18T19:36:10.391Z,94794.53
2023-04-18T19:38:36.694Z,94791.28
2023-04-18T19:41:03.000Z,94793.06
2023-04-18T19:43:29.310Z,94791.91
2023-04-18T19:45:55.699Z,94789.56
2023-04-18T19:48:22.153Z,94787.28
2023-04-18T19:50:48.472Z,94786.28
2023-04-18T19:53:14.805Z,94785.38
2023-04-18T19:55:41.145Z,94778.31
2023-04-18T19:58:07.471Z,94779.19
2023-04-18T20:00:33.798Z,94783.94
2023-04-18T20:03:00.334Z,94788.63
2023-04-18T20:05:26.849Z,94784.22
2023-04-18T20:07:53.211Z,94789.84
2023-04-18T20:10:19.535Z,94786.53
2023-04-18T20:12:46.286Z,94783.91
2023-04-18T20:15:13.638Z,94782.22
2023-04-18T20:17:39.972Z,94788.78
2023-04-18T20:20:06.372Z,94786.19
2023-04-18T20:22:32.699Z,94786.25
2023-04-18T20:24:59.009Z,94793.16
2023-04-18T20:27:25.350Z,94796.00
2023-04-18T20:29:51.670Z,94789.47
2023-04-18T20:32:18.115Z,94794.38
2023-04-18T20:34:44.441Z,94792.94
2023-04-18T20:37:10.797Z,94802.03
2023-04-18T20:39:37.110Z,94794.25
2023-04-18T20:42:03.434Z,94799.38
2023-04-18T20:44:29.740Z,94795.66
2023-04-18T20:46:56.061Z,94796.44
2023-04-18T20:49:22.364Z,94804.28
2023-04-18T20:51:48.700Z,94790.59
2023-04-18T20:54:15.389Z,94800.56
2023-04-18T20:56:41.868Z,94808.41
2023-04-18T20:59:08.202Z,94805.56
2023-04-18T21:01:36.773Z,94808.59
2023-04-18T21:04:03.603Z,94800.66
2023-04-18T21:06:30.031Z,94803.31
2023-04-18T21:08:56.339Z,94807.38
2023-04-18T21:11:22.684Z,94809.44
2023-04-18T21:13:49.003Z,94814.31
2023-04-18T21:16:15.348Z,94818.22
2023-04-18T21:18:41.761Z,94826.25
2023-04-18T21:21:08.077Z,94825.56
2023-04-18T21:23:34.400Z,94823.94
2023-04-18T21:26:00.711Z,94826.38
2023-04-18T21:28:27.011Z,94821.97
2023-04-18T21:30:53.352Z,94833.34
2023-04-18T21:33:19.732Z,94830.63
2023-04-18T21:35:46.046Z,94834.88
2023-04-18T21:38:12.374Z,94834.38
2023-04-18T21:40:38.701Z,94839.09
2023-04-18T21:43:05.061Z,94837.66
2023-04-18T21:45:31.422Z,94841.59
2023-04-18T21:47:57.771Z,94842.84
2023-04-18T21:50:24.090Z,94839.88
2023-04-18T21:52:50.412Z,94843.34
2023-04-18T21:55:16.734Z,94853.63
2023-04-18T21:57:43.050Z,94848.28
2023-04-18T22:00:10.515Z,94848.66
2023-04-18T22:02:37.185Z,94856.06
2023-04-18T22:05:03.577Z,94855.97
2023-04-18T22:07:29.894Z,94851.09
2023-04-18T22:09:56.216Z,94848.69
2023-04-18T22:12:22.544Z,94853.88
2023-04-18T22:14:48.856Z,94849.25
2023-04-18T22:17:15.180Z,94853.63
2023-04-18T22:19:41.501Z,94859.53
2023-04-18T22:22:07.813Z,94854.34
2023-04-18T22:24:34.148Z,94862.16
2023-04-18T22:27:00.508Z,94860.44
2023-04-18T22:29:26.836Z,94860.44
2023-04-18T22:31:53.144Z,94864.63
2023-04-18T22:34:19.473Z,94856.06
2023-04-18T22:36:45.797Z,94869.06
2023-04-18T22:39:12.132Z,94862.44
2023-04-18T22:41:38.526Z,94866.91
2023-04-18T22:44:04.848Z,94865.28
2023-04-18T22:46:31.236Z,94864.09
2023-04-18T22:48:57.596Z,94860.34
2023-04-18T22:51:24.047Z,94862.91
2023-04-18T22:53:50.384Z,94866.91
2023-04-18T22:56:16.711Z,94864.78
2023-04-18T22:58:43.044Z,94874.09
2023-04-18T23:01:09.430Z,94869.91
2023-04-18T23:03:35.930Z,94869.63
2023-04-18T23:06:02.325Z,94868.34
2023-04-18T23:08:28.628Z,94871.31
2023-04-18T23:10:54.962Z,94874.50
2023-04-18T23:13:21.285Z,94876.84
2023-04-18T23:15:47.672Z,94874.66
2023-04-18T23:18:14.023Z,94878.03
2023-04-18T23:20:40.361Z,94876.75
2023-04-18T23:23:06.686Z,94886.88
2023-04-18T23:25:33.014Z,94884.13
2023-04-18T23:27:59.325Z,94891.47
2023-04-18T23:30:25.649Z,94890.84
2023-04-18T23:32:51.987Z,94888.09
2023-04-18T23:35:18.322Z,94888.69
2023-04-18T23:37:44.673Z,94884.75
2023-04-18T23:40:10.986Z,94888.22
2023-04-18T23:42:37.296Z,94885.56
2023-04-18T23:45:03.614Z,94888.59
2023-04-18T23:47:30.048Z,94882.69
2023-04-18T23:49:56.412Z,94878.38
2023-04-18T23:52:22.748Z,94885.31
2023-04-18T23:54:49.066Z,94888.34
2023-04-18T23:57:15.374Z,94880.56
2023-04-18T23:59:41.696Z,94887.06
